Time,TemperatureF,DewpointF,PressureIn,WindDirection,WindDirectionDegrees,WindSpeedMPH,WindSpeedGustMPH,Humidity,HourlyPrecipIn,Conditions,Clouds,dailyrainin,SoftwareType,DateUTC
2013-02-02 03:53:00,39.0,35.7,30.32,WSW,244,0.0,0.0,88,0.00,,,0.00,Wunderground v.1.15,2013-02-02 08:53:00,
2013-02-02 03:54:00,39.0,35.7,30.32,WSW,245,0.0,0.0,88,0.00,,,0.00,Wunderground v.1.15,2013-02-02 08:54:00,
2013-02-02 03:59:00,38.9,35.6,30.32,WSW,245,0.0,0.0,88,0.00,,,0.00,Wunderground v.1.15,2013-02-02 08:59:00,
2013-02-02 04:04:00,38.8,35.6,30.32,WSW,245,0.0,0.0,88,0.00,,,0.00,Wunderground v.1.15,2013-02-02 09:04:00,
2013-02-02 04:09:00,38.8,35.8,30.32,WSW,245,0.0,0.0,89,0.00,,,0.00,Wunderground v.1.15,2013-02-02 09:09:00,
2013-02-02 04:15:00,38.6,35.4,30.32,WSW,245,0.0,0.0,88,0.00,,,0.00,Wunderground v.1.15,2013-02-02 09:15:00,
2013-02-02 04:20:00,38.3,35.1,30.32,WSW,245,0.0,0.0,88,0.00,,,0.00,Wunderground v.1.15,2013-02-02 09:20:00,
2013-02-02 04:25:00,38.2,35.2,30.32,WSW,245,0.0,0.0,89,0.00,,,0.00,Wunderground v.1.15,2013-02-02 09:25:00,
2013-02-02 04:31:00,38.0,34.8,30.32,WSW,245,0.0,0.0,88,0.00,,,0.00,Wunderground v.1.15,2013-02-02 09:31:00,
2013-02-02 04:36:00,38.0,35.0,30.32,WSW,244,0.0,0.0,89,0.00,,,0.00,Wunderground v.1.15,2013-02-02 09:36:00,
2013-02-02 04:42:00,37.9,34.7,30.32,WSW,244,0.0,0.0,88,0.00,,,0.00,Wunderground v.1.15,2013-02-02 09:42:00,
2013-02-02 04:47:00,37.8,34.6,30.32,WSW,245,0.0,0.0,88,0.00,,,0.00,Wunderground v.1.15,2013-02-02 09:47:00,
2013-02-02 04:53:00,37.7,34.5,30.32,WSW,244,0.0,0.0,88,0.00,,,0.00,Wunderground v.1.15,2013-02-02 09:53:00,
2013-02-02 04:59:00,37.8,35.1,30.32,WSW,245,0.0,0.0,90,0.00,,,0.00,Wunderground v.1.15,2013-02-02 09:59:00,
2013-02-02 05:05:00,37.8,34.6,30.32,WSW,244,0.0,0.0,88,0.00,,,0.00,Wunderground v.1.15,2013-02-02 10:05:00,
2013-02-02 05:11:00,37.7,34.5,30.32,WSW,245,0.0,0.0,88,0.00,,,0.00,Wunderground v.1.15,2013-02-02 10:11:00,
2013-02-02 05:16:00,37.7,34.8,30.32,WSW,244,0.0,0.0,89,0.00,,,0.00,Wunderground v.1.15,2013-02-02 10:16:00,
2013-02-02 05:22:00,37.7,34.8,30.32,WSW,244,0.0,0.0,89,0.00,,,0.00,Wunderground v.1.15,2013-02-02 10:22:00,
2013-02-02 05:28:00,37.7,34.8,30.32,WSW,245,0.0,0.0,89,0.00,,,0.00,Wunderground v.1.15,2013-02-02 10:28:00,
2013-02-02 05:34:00,37.6,34.7,30.32,WSW,245,0.0,0.0,89,0.00,,,0.00,Wunderground v.1.15,2013-02-02 10:34:00,
2013-02-02 05:40:00,37.6,34.7,30.32,WSW,245,0.0,0.0,89,0.00,,,0.00,Wunderground v.1.15,2013-02-02 10:40:00,
2013-02-02 06:15:00,37.7,34.8,30.33,WSW,244,0.0,0.0,89,0.00,,,0.00,Wunderground v.1.15,2013-02-02 11:15:00,
2013-02-02 06:20:00,37.7,34.8,30.33,WSW,245,0.0,0.0,89,0.00,,,0.00,Wunderground v.1.15,2013-02-02 11:20:00,
2013-02-02 06:25:00,37.6,34.7,30.33,WSW,245,0.0,0.0,89,0.00,,,0.00,Wunderground v.1.15,2013-02-02 11:25:00,
2013-02-02 06:30:00,37.5,34.8,30.33,WSW,245,0.0,0.0,90,0.00,,,0.00,Wunderground v.1.15,2013-02-02 11:30:00,
2013-02-02 06:35:00,37.4,34.7,30.34,WSW,245,0.0,0.0,90,0.00,,,0.00,Wunderground v.1.15,2013-02-02 11:35:00,
2013-02-02 06:45:00,37.5,34.8,30.33,WSW,245,0.0,0.0,90,0.00,,,0.00,Wunderground v.1.15,2013-02-02 11:45:00,
2013-02-02 06:50:00,37.4,34.5,30.34,WSW,244,0.0,0.0,89,0.00,,,0.00,Wunderground v.1.15,2013-02-02 11:50:00,
2013-02-02 08:26:00,40.5,35.7,30.35,WSW,244,0.0,0.0,83,0.00,,,0.00,Wunderground v.1.15,2013-02-02 13:26:00,
2013-02-02 08:35:00,41.9,36.8,30.35,WSW,246,0.0,0.0,82,0.00,,,0.00,Wunderground v.1.15,2013-02-02 13:35:00,
2013-02-02 08:40:00,42.6,37.2,30.34,WSW,246,0.0,0.0,81,0.00,,,0.00,Wunderground v.1.15,2013-02-02 13:40:00,
2013-02-02 08:50:00,43.9,38.1,30.34,WSW,246,0.0,0.0,80,0.00,,,0.00,Wunderground v.1.15,2013-02-02 13:50:00,
2013-02-02 08:55:00,44.4,38.6,30.34,WSW,246,0.0,0.0,80,0.00,,,0.00,Wunderground v.1.15,2013-02-02 13:55:00,
2013-02-02 09:00:00,44.9,39.1,30.34,WSW,248,0.0,0.0,80,0.00,,,0.00,Wunderground v.1.15,2013-02-02 14:00:00,
2013-02-02 09:10:00,46.3,39.8,30.35,WSW,255,0.0,0.0,78,0.00,,,0.00,Wunderground v.1.15,2013-02-02 14:10:00,
2013-02-02 09:15:00,47.3,40.1,30.35,WSW,255,0.0,0.0,76,0.00,,,0.00,Wunderground v.1.15,2013-02-02 14:15:00,
2013-02-02 09:20:00,48.0,40.1,30.35,West,259,0.0,0.0,74,0.00,,,0.00,Wunderground v.1.15,2013-02-02 14:20:00,
2013-02-02 09:25:00,48.5,40.6,30.35,West,267,0.0,0.0,74,0.00,,,0.00,Wunderground v.1.15,2013-02-02 14:25:00,
2013-02-02 09:35:00,49.6,41.3,30.34,South,176,0.0,1.0,73,0.00,,,0.00,Wunderground v.1.15,2013-02-02 14:35:00,
2013-02-02 10:00:00,52.2,42.3,30.34,SSW,205,0.0,1.0,69,0.00,,,0.00,Wunderground v.1.15,2013-02-02 15:00:00,
2013-02-02 10:10:00,53.6,43.3,30.34,WNW,290,0.0,0.0,68,0.00,,,0.00,Wunderground v.1.15,2013-02-02 15:10:00,
2013-02-02 10:15:00,54.4,42.5,30.34,West,273,0.0,1.0,64,0.00,,,0.00,Wunderground v.1.15,2013-02-02 15:15:00,
2013-02-02 10:20:00,54.9,42.9,30.34,ESE,114,0.0,3.0,64,0.00,,,0.00,Wunderground v.1.15,2013-02-02 15:20:00,
2013-02-02 10:25:00,55.2,42.8,30.34,ESE,119,1.0,3.0,63,0.00,,,0.00,Wunderground v.1.15,2013-02-02 15:25:00,
2013-02-02 10:35:00,56.6,44.1,30.33,North,4,0.0,1.0,63,0.00,,,0.00,Wunderground v.1.15,2013-02-02 15:35:00,
2013-02-02 10:40:00,57.2,42.1,30.33,West,278,0.0,0.0,57,0.00,,,0.00,Wunderground v.1.15,2013-02-02 15:40:00,
2013-02-02 10:45:00,57.0,42.4,30.33,WNW,286,1.0,1.0,58,0.00,,,0.00,Wunderground v.1.15,2013-02-02 15:45:00,
2013-02-02 10:50:00,57.2,41.2,30.33,SE,136,1.0,1.0,55,0.00,,,0.00,Wunderground v.1.15,2013-02-02 15:50:00,
2013-02-02 11:00:00,57.3,41.3,30.33,ESE,105,1.0,2.0,55,0.00,,,0.00,Wunderground v.1.15,2013-02-02 16:00:00,
2013-02-02 11:05:00,56.7,40.7,30.33,SE,131,1.0,2.0,55,0.00,,,0.00,Wunderground v.1.15,2013-02-02 16:05:00,
2013-02-02 11:10:00,57.6,40.1,30.33,East,84,1.0,1.0,52,0.00,,,0.00,Wunderground v.1.15,2013-02-02 16:10:00,
2013-02-02 11:15:00,58.4,43.2,30.32,WNW,303,1.0,2.0,57,0.00,,,0.00,Wunderground v.1.15,2013-02-02 16:15:00,
2013-02-02 11:20:00,59.2,41.1,30.32,NNW,343,1.0,1.0,51,0.00,,,0.00,Wunderground v.1.15,2013-02-02 16:20:00,
2013-02-02 11:25:00,58.9,40.8,30.32,SE,133,1.0,4.0,51,0.00,,,0.00,Wunderground v.1.15,2013-02-02 16:25:00,
2013-02-02 11:30:00,58.9,41.8,30.32,East,97,2.0,2.0,53,0.00,,,0.00,Wunderground v.1.15,2013-02-02 16:30:00,
2013-02-02 11:35:00,59.1,43.4,30.31,East,79,0.0,3.0,56,0.00,,,0.00,Wunderground v.1.15,2013-02-02 16:35:00,
2013-02-02 11:41:00,59.1,41.0,30.31,SE,146,4.0,4.0,51,0.00,,,0.00,Wunderground v.1.15,2013-02-02 16:41:00,
2013-02-02 11:46:00,58.8,41.2,30.31,SE,127,0.0,4.0,52,0.00,,,0.00,Wunderground v.1.15,2013-02-02 16:46:00,
2013-02-02 11:51:00,59.0,40.9,30.31,ESE,111,1.0,3.0,51,0.00,,,0.00,Wunderground v.1.15,2013-02-02 16:51:00,
2013-02-02 11:56:00,59.5,41.3,30.30,ESE,122,2.0,4.0,51,0.00,,,0.00,Wunderground v.1.15,2013-02-02 16:56:00,
2013-02-02 12:01:00,59.4,41.3,30.30,SE,124,0.0,3.0,51,0.00,,,0.00,Wunderground v.1.15,2013-02-02 17:01:00,
2013-02-02 12:06:00,59.7,42.0,30.30,East,90,2.0,4.0,52,0.00,,,0.00,Wunderground v.1.15,2013-02-02 17:06:00,
2013-02-02 12:11:00,59.8,41.6,30.29,NNW,332,0.0,2.0,51,0.00,,,0.00,Wunderground v.1.15,2013-02-02 17:11:00,
2013-02-02 12:16:00,60.7,43.9,30.28,ENE,59,0.0,2.0,54,0.00,,,0.00,Wunderground v.1.15,2013-02-02 17:16:00,
2013-02-02 12:21:00,60.3,40.5,30.28,ENE,70,3.0,7.0,48,0.00,,,0.00,Wunderground v.1.15,2013-02-02 17:21:00,
2013-02-02 12:26:00,60.9,41.6,30.28,SE,139,0.0,7.0,49,0.00,,,0.00,Wunderground v.1.15,2013-02-02 17:26:00,
2013-02-02 12:31:00,61.0,43.7,30.27,ESE,120,0.0,2.0,53,0.00,,,0.00,Wunderground v.1.15,2013-02-02 17:31:00,
2013-02-02 12:36:00,61.4,42.1,30.27,NNE,23,2.0,3.0,49,0.00,,,0.00,Wunderground v.1.15,2013-02-02 17:36:00,
2013-02-02 12:41:00,61.1,42.3,30.27,ESE,111,0.0,1.0,50,0.00,,,0.00,Wunderground v.1.15,2013-02-02 17:41:00,
2013-02-02 12:46:00,61.6,42.8,30.27,NNW,332,0.0,3.0,50,0.00,,,0.00,Wunderground v.1.15,2013-02-02 17:46:00,
2013-02-02 12:51:00,61.7,41.8,30.26,East,89,0.0,2.0,48,0.00,,,0.00,Wunderground v.1.15,2013-02-02 17:51:00,
2013-02-02 12:56:00,61.7,40.1,30.26,ESE,116,1.0,4.0,45,0.00,,,0.00,Wunderground v.1.15,2013-02-02 17:56:00,
2013-02-02 13:01:00,61.9,42.5,30.26,NNW,340,0.0,1.0,49,0.00,,,0.00,Wunderground v.1.15,2013-02-02 18:01:00,
2013-02-02 13:06:00,62.1,41.1,30.26,NNW,328,0.0,3.0,46,0.00,,,0.00,Wunderground v.1.15,2013-02-02 18:06:00,
2013-02-02 13:11:00,62.2,41.2,30.25,ESE,123,1.0,3.0,46,0.00,,,0.00,Wunderground v.1.15,2013-02-02 18:11:00,
2013-02-02 13:16:00,61.4,41.0,30.25,East,99,1.0,4.0,47,0.00,,,0.00,Wunderground v.1.15,2013-02-02 18:16:00,
2013-02-02 13:21:00,61.4,41.5,30.25,ESE,123,5.0,6.0,48,0.00,,,0.00,Wunderground v.1.15,2013-02-02 18:21:00,
2013-02-02 13:26:00,60.8,42.5,30.24,ESE,123,5.0,8.0,51,0.00,,,0.00,Wunderground v.1.15,2013-02-02 18:26:00,
2013-02-02 13:32:00,60.8,42.5,30.23,SSW,194,2.0,3.0,51,0.00,,,0.00,Wunderground v.1.15,2013-02-02 18:32:00,
2013-02-02 13:38:00,60.4,44.2,30.23,NE,34,2.0,7.0,55,0.00,,,0.00,Wunderground v.1.15,2013-02-02 18:38:00,
2013-02-02 13:44:00,61.1,42.3,30.23,NNE,23,1.0,2.0,50,0.00,,,0.00,Wunderground v.1.15,2013-02-02 18:44:00,
2013-02-02 13:49:00,60.8,43.1,30.22,ESE,111,1.0,5.0,52,0.00,,,0.00,Wunderground v.1.15,2013-02-02 18:49:00,
2013-02-02 13:55:00,60.9,42.6,30.22,NW,318,1.0,2.0,51,0.00,,,0.00,Wunderground v.1.15,2013-02-02 18:55:00,
2013-02-02 14:00:00,60.8,43.1,30.22,ESE,120,1.0,1.0,52,0.00,,,0.00,Wunderground v.1.15,2013-02-02 19:00:00,
2013-02-02 14:06:00,60.3,42.6,30.22,ESE,105,2.0,4.0,52,0.00,,,0.00,Wunderground v.1.15,2013-02-02 19:06:00,
2013-02-02 14:11:00,60.2,44.0,30.22,East,85,3.0,3.0,55,0.00,,,0.00,Wunderground v.1.15,2013-02-02 19:11:00,
2013-02-02 14:17:00,60.3,43.1,30.21,SE,146,1.0,4.0,53,0.00,,,0.00,Wunderground v.1.15,2013-02-02 19:17:00,
2013-02-02 14:23:00,60.3,43.1,30.21,NW,325,0.0,0.0,53,0.00,,,0.00,Wunderground v.1.15,2013-02-02 19:23:00,
2013-02-02 14:29:00,60.0,43.8,30.21,West,273,1.0,4.0,55,0.00,,,0.00,Wunderground v.1.15,2013-02-02 19:29:00,
2013-02-02 14:34:00,60.2,43.5,30.21,NNW,332,1.0,2.0,54,0.00,,,0.00,Wunderground v.1.15,2013-02-02 19:34:00,
2013-02-02 14:40:00,60.0,43.8,30.21,North,7,0.0,1.0,55,0.00,,,0.00,Wunderground v.1.15,2013-02-02 19:40:00,
2013-02-02 14:46:00,59.9,43.2,30.20,NNW,338,0.0,1.0,54,0.00,,,0.00,Wunderground v.1.15,2013-02-02 19:46:00,
2013-02-02 14:52:00,59.8,44.5,30.20,NNE,26,0.0,0.0,57,0.00,,,0.00,Wunderground v.1.15,2013-02-02 19:52:00,
2013-02-02 14:58:00,59.5,43.8,30.20,North,352,0.0,3.0,56,0.00,,,0.00,Wunderground v.1.15,2013-02-02 19:58:00,
2013-02-02 15:03:00,59.5,44.2,30.20,NNW,327,0.0,1.0,57,0.00,,,0.00,Wunderground v.1.15,2013-02-02 20:03:00,
2013-02-02 15:09:00,59.4,44.2,30.20,North,355,0.0,1.0,57,0.00,,,0.00,Wunderground v.1.15,2013-02-02 20:09:00,
2013-02-02 15:15:00,59.2,44.4,30.20,South,177,0.0,1.0,58,0.00,,,0.00,Wunderground v.1.15,2013-02-02 20:15:00,
2013-02-02 15:20:00,59.2,44.9,30.19,NNE,18,0.0,0.0,59,0.00,,,0.00,Wunderground v.1.15,2013-02-02 20:20:00,
2013-02-02 15:26:00,59.0,45.1,30.19,North,9,0.0,0.0,60,0.00,,,0.00,Wunderground v.1.15,2013-02-02 20:26:00,
2013-02-02 15:31:00,58.7,44.8,30.19,NNE,31,1.0,1.0,60,0.00,,,0.00,Wunderground v.1.15,2013-02-02 20:31:00,
2013-02-02 15:36:00,58.6,44.8,30.19,East,82,1.0,3.0,60,0.00,,,0.00,Wunderground v.1.15,2013-02-02 20:36:00,
2013-02-02 15:42:00,58.3,44.9,30.18,WNW,297,1.0,4.0,61,0.00,,,0.00,Wunderground v.1.15,2013-02-02 20:42:00,
2013-02-02 15:47:00,58.2,44.8,30.18,East,98,1.0,4.0,61,0.00,,,0.00,Wunderground v.1.15,2013-02-02 20:47:00,
2013-02-02 15:52:00,58.1,45.1,30.18,NNW,329,1.0,2.0,62,0.00,,,0.00,Wunderground v.1.15,2013-02-02 20:52:00,
2013-02-02 15:58:00,58.3,44.9,30.18,ESE,119,1.0,2.0,61,0.00,,,0.00,Wunderground v.1.15,2013-02-02 20:58:00,
2013-02-02 16:04:00,58.1,44.7,30.18,ESE,116,1.0,2.0,61,0.00,,,0.00,Wunderground v.1.15,2013-02-02 21:04:00,
2013-02-02 16:09:00,58.2,44.8,30.18,SE,128,1.0,2.0,61,0.00,,,0.00,Wunderground v.1.15,2013-02-02 21:09:00,
2013-02-02 16:15:00,58.3,45.3,30.18,East,91,1.0,1.0,62,0.00,,,0.00,Wunderground v.1.15,2013-02-02 21:15:00,
2013-02-02 16:21:00,58.3,44.9,30.18,ENE,60,0.0,0.0,61,0.00,,,0.00,Wunderground v.1.15,2013-02-02 21:21:00,
2013-02-02 16:27:00,58.3,44.9,30.18,East,86,1.0,3.0,61,0.00,,,0.00,Wunderground v.1.15,2013-02-02 21:27:00,
2013-02-02 16:32:00,58.3,45.3,30.18,East,94,1.0,1.0,62,0.00,,,0.00,Wunderground v.1.15,2013-02-02 21:32:00,
2013-02-02 16:38:00,58.2,45.2,30.18,ENE,59,0.0,2.0,62,0.00,,,0.00,Wunderground v.1.15,2013-02-02 21:38:00,